GOBD

Blaise Diagne International Airport

Dakar, Senegal
METAR GOBD 181430Z 31011KT 280V360 9999 SCT031 31/21 Q1011 NOSIG
Observed Flight Rules
Aug-18 @ 14:30 UTC (21 minutes ago) Visual Flight Rules
Wind Visibility Clouds
310° at 11 knots 10,000+ meters
  • Scattered at 3,100' AGL
Temperatures Readings
Current 31°C / 88°F
Dewpoint 21°C / 70°F
Humidity 55%
Altimeter 29.85" Hg
Pressure 1011 hPa
Elevation 88
METAR GOBD 181430Z 31011KT 280V360 9999 SCT031 31/21 Q1011 NOSIG
Observed Flight Rules
Aug-18 @ 14:30 UTC
(21 minutes ago)
VFR
Wind Visibility
310° at 11 knots 10,000+ meters
Clouds
  • Scattered at 3,100' AGL
Temperature Dewpoint
31°C / 88°F 21°C / 70°F
Humidity Altimeter Pressure
55% 29.85" Hg 1011 hPa